sensor_id;sensor_type;location;lat;lon;timestamp;P1;durP1;ratioP1;P2;durP2;ratioP2
57225;SDS011;43082;43.568;22.256;2023-11-19T00:00:46;9.13;;;4.85;;
57225;SDS011;43082;43.568;22.256;2023-11-19T00:03:12;10.65;;;5.28;;
57225;SDS011;43082;43.568;22.256;2023-11-19T00:05:38;9.73;;;4.82;;
57225;SDS011;43082;43.568;22.256;2023-11-19T00:08:03;12.00;;;5.10;;
57225;SDS011;43082;43.568;22.256;2023-11-19T00:10:29;9.05;;;5.10;;
57225;SDS011;43082;43.568;22.256;2023-11-19T00:12:55;11.55;;;6.32;;
57225;SDS011;43082;43.568;22.256;2023-11-19T00:15:22;11.98;;;7.03;;
57225;SDS011;43082;43.568;22.256;2023-11-19T00:17:49;9.75;;;5.80;;
57225;SDS011;43082;43.568;22.256;2023-11-19T00:20:15;12.00;;;6.85;;
57225;SDS011;43082;43.568;22.256;2023-11-19T00:22:41;9.50;;;5.20;;
57225;SDS011;43082;43.568;22.256;2023-11-19T00:25:11;10.23;;;5.35;;
57225;SDS011;43082;43.568;22.256;2023-11-19T00:27:36;12.68;;;6.88;;
57225;SDS011;43082;43.568;22.256;2023-11-19T00:30:03;9.77;;;5.47;;
57225;SDS011;43082;43.568;22.256;2023-11-19T00:32:30;11.95;;;6.47;;
57225;SDS011;43082;43.568;22.256;2023-11-19T00:34:55;10.43;;;5.93;;
57225;SDS011;43082;43.568;22.256;2023-11-19T00:37:21;13.93;;;7.10;;
57225;SDS011;43082;43.568;22.256;2023-11-19T00:39:46;9.45;;;5.25;;
57225;SDS011;43082;43.568;22.256;2023-11-19T00:42:11;11.77;;;6.72;;
57225;SDS011;43082;43.568;22.256;2023-11-19T00:44:36;10.30;;;6.00;;
57225;SDS011;43082;43.568;22.256;2023-11-19T00:47:02;9.77;;;5.90;;
57225;SDS011;43082;43.568;22.256;2023-11-19T00:49:27;10.05;;;6.10;;
57225;SDS011;43082;43.568;22.256;2023-11-19T00:51:53;13.65;;;7.20;;
57225;SDS011;43082;43.568;22.256;2023-11-19T00:54:18;10.27;;;5.75;;
57225;SDS011;43082;43.568;22.256;2023-11-19T00:56:43;11.70;;;6.70;;
57225;SDS011;43082;43.568;22.256;2023-11-19T00:59:09;9.95;;;5.82;;
57225;SDS011;43082;43.568;22.256;2023-11-19T01:01:35;11.30;;;6.25;;
57225;SDS011;43082;43.568;22.256;2023-11-19T01:04:00;11.77;;;6.28;;
57225;SDS011;43082;43.568;22.256;2023-11-19T01:06:29;11.45;;;6.72;;
57225;SDS011;43082;43.568;22.256;2023-11-19T01:08:54;13.07;;;8.00;;
57225;SDS011;43082;43.568;22.256;2023-11-19T01:11:21;14.70;;;8.07;;
57225;SDS011;43082;43.568;22.256;2023-11-19T01:13:47;23.25;;;14.40;;
57225;SDS011;43082;43.568;22.256;2023-11-19T01:16:12;12.70;;;7.40;;
57225;SDS011;43082;43.568;22.256;2023-11-19T01:18:38;15.88;;;8.82;;
57225;SDS011;43082;43.568;22.256;2023-11-19T01:21:04;13.68;;;6.68;;
57225;SDS011;43082;43.568;22.256;2023-11-19T01:23:29;17.65;;;8.98;;
57225;SDS011;43082;43.568;22.256;2023-11-19T01:25:54;10.95;;;6.03;;
57225;SDS011;43082;43.568;22.256;2023-11-19T01:28:20;12.77;;;6.50;;
57225;SDS011;43082;43.568;22.256;2023-11-19T01:30:45;16.30;;;8.45;;
57225;SDS011;43082;43.568;22.256;2023-11-19T01:33:10;14.07;;;7.53;;
57225;SDS011;43082;43.568;22.256;2023-11-19T01:35:35;18.00;;;9.48;;
57225;SDS011;43082;43.568;22.256;2023-11-19T01:38:01;14.63;;;8.10;;
57225;SDS011;43082;43.568;22.256;2023-11-19T01:40:26;16.42;;;8.43;;
57225;SDS011;43082;43.568;22.256;2023-11-19T01:42:51;9.27;;;5.10;;
57225;SDS011;43082;43.568;22.256;2023-11-19T01:45:21;9.25;;;4.80;;
57225;SDS011;43082;43.568;22.256;2023-11-19T01:47:47;12.18;;;6.63;;
57225;SDS011;43082;43.568;22.256;2023-11-19T01:50:12;11.60;;;6.43;;
57225;SDS011;43082;43.568;22.256;2023-11-19T01:52:37;10.52;;;5.43;;
57225;SDS011;43082;43.568;22.256;2023-11-19T01:55:03;13.10;;;6.90;;
57225;SDS011;43082;43.568;22.256;2023-11-19T01:57:29;11.60;;;6.35;;
57225;SDS011;43082;43.568;22.256;2023-11-19T01:59:54;12.55;;;7.30;;
57225;SDS011;43082;43.568;22.256;2023-11-19T02:02:20;12.25;;;6.93;;
57225;SDS011;43082;43.568;22.256;2023-11-19T02:04:49;13.43;;;7.60;;
57225;SDS011;43082;43.568;22.256;2023-11-19T02:07:14;14.23;;;7.88;;
57225;SDS011;43082;43.568;22.256;2023-11-19T02:09:42;14.55;;;7.78;;
57225;SDS011;43082;43.568;22.256;2023-11-19T02:12:08;11.75;;;6.93;;
57225;SDS011;43082;43.568;22.256;2023-11-19T02:14:34;11.50;;;6.88;;
57225;SDS011;43082;43.568;22.256;2023-11-19T02:16:59;10.93;;;5.70;;
57225;SDS011;43082;43.568;22.256;2023-11-19T02:19:25;9.73;;;5.88;;
57225;SDS011;43082;43.568;22.256;2023-11-19T02:21:50;10.63;;;6.57;;
57225;SDS011;43082;43.568;22.256;2023-11-19T02:24:15;9.13;;;5.28;;
57225;SDS011;43082;43.568;22.256;2023-11-19T02:29:06;9.60;;;4.67;;
57225;SDS011;43082;43.568;22.256;2023-11-19T02:31:32;8.10;;;4.47;;
57225;SDS011;43082;43.568;22.256;2023-11-19T02:34:00;10.32;;;5.80;;
57225;SDS011;43082;43.568;22.256;2023-11-19T02:36:27;11.63;;;6.22;;
57225;SDS011;43082;43.568;22.256;2023-11-19T02:38:52;12.05;;;6.45;;
57225;SDS011;43082;43.568;22.256;2023-11-19T02:41:17;9.95;;;5.90;;
57225;SDS011;43082;43.568;22.256;2023-11-19T02:43:43;10.48;;;5.75;;
57225;SDS011;43082;43.568;22.256;2023-11-19T02:46:08;13.75;;;8.48;;
57225;SDS011;43082;43.568;22.256;2023-11-19T02:48:37;13.18;;;7.35;;
57225;SDS011;43082;43.568;22.256;2023-11-19T02:51:02;12.63;;;7.40;;
57225;SDS011;43082;43.568;22.256;2023-11-19T02:53:34;11.13;;;5.03;;
57225;SDS011;43082;43.568;22.256;2023-11-19T02:55:59;15.95;;;6.57;;
57225;SDS011;43082;43.568;22.256;2023-11-19T02:58:37;15.00;;;6.97;;
57225;SDS011;43082;43.568;22.256;2023-11-19T03:01:04;10.90;;;6.13;;
57225;SDS011;43082;43.568;22.256;2023-11-19T03:03:37;11.30;;;6.13;;
57225;SDS011;43082;43.568;22.256;2023-11-19T03:06:06;12.30;;;6.70;;
57225;SDS011;43082;43.568;22.256;2023-11-19T03:08:32;9.80;;;5.80;;
57225;SDS011;43082;43.568;22.256;2023-11-19T03:10:57;11.98;;;6.40;;
57225;SDS011;43082;43.568;22.256;2023-11-19T03:13:24;8.45;;;5.20;;
57225;SDS011;43082;43.568;22.256;2023-11-19T03:15:49;11.35;;;6.88;;
57225;SDS011;43082;43.568;22.256;2023-11-19T03:18:14;10.88;;;5.88;;
57225;SDS011;43082;43.568;22.256;2023-11-19T03:20:40;10.93;;;5.53;;
57225;SDS011;43082;43.568;22.256;2023-11-19T03:23:05;9.77;;;4.60;;
57225;SDS011;43082;43.568;22.256;2023-11-19T03:25:31;8.63;;;4.82;;
57225;SDS011;43082;43.568;22.256;2023-11-19T03:28:00;9.48;;;4.80;;
57225;SDS011;43082;43.568;22.256;2023-11-19T03:30:27;8.85;;;4.45;;
57225;SDS011;43082;43.568;22.256;2023-11-19T03:32:53;7.30;;;3.97;;
57225;SDS011;43082;43.568;22.256;2023-11-19T03:35:18;8.50;;;4.35;;
57225;SDS011;43082;43.568;22.256;2023-11-19T03:37:44;8.63;;;4.40;;
57225;SDS011;43082;43.568;22.256;2023-11-19T03:40:09;9.20;;;4.30;;
57225;SDS011;43082;43.568;22.256;2023-11-19T03:42:35;10.43;;;4.95;;
57225;SDS011;43082;43.568;22.256;2023-11-19T03:45:00;7.65;;;4.00;;
57225;SDS011;43082;43.568;22.256;2023-11-19T03:47:26;10.98;;;4.20;;
57225;SDS011;43082;43.568;22.256;2023-11-19T03:49:51;11.50;;;5.13;;
57225;SDS011;43082;43.568;22.256;2023-11-19T03:52:17;8.82;;;4.40;;
57225;SDS011;43082;43.568;22.256;2023-11-19T03:54:43;11.80;;;5.32;;
57225;SDS011;43082;43.568;22.256;2023-11-19T03:57:08;9.13;;;4.60;;
57225;SDS011;43082;43.568;22.256;2023-11-19T03:59:35;8.05;;;4.32;;
57225;SDS011;43082;43.568;22.256;2023-11-19T04:02:00;8.73;;;4.70;;
57225;SDS011;43082;43.568;22.256;2023-11-19T04:04:27;8.35;;;4.75;;
57225;SDS011;43082;43.568;22.256;2023-11-19T04:06:53;10.20;;;5.55;;
57225;SDS011;43082;43.568;22.256;2023-11-19T04:09:18;8.68;;;4.10;;
57225;SDS011;43082;43.568;22.256;2023-11-19T04:11:43;8.85;;;4.10;;
57225;SDS011;43082;43.568;22.256;2023-11-19T04:14:09;8.25;;;4.60;;
57225;SDS011;43082;43.568;22.256;2023-11-19T04:16:35;8.80;;;5.13;;
57225;SDS011;43082;43.568;22.256;2023-11-19T04:19:00;9.48;;;4.90;;
57225;SDS011;43082;43.568;22.256;2023-11-19T04:21:26;9.48;;;5.07;;
57225;SDS011;43082;43.568;22.256;2023-11-19T04:23:52;7.88;;;4.22;;
57225;SDS011;43082;43.568;22.256;2023-11-19T04:26:17;7.63;;;4.32;;
57225;SDS011;43082;43.568;22.256;2023-11-19T04:28:42;7.30;;;4.50;;
57225;SDS011;43082;43.568;22.256;2023-11-19T04:31:07;7.82;;;4.38;;
57225;SDS011;43082;43.568;22.256;2023-11-19T04:33:34;10.10;;;4.63;;
57225;SDS011;43082;43.568;22.256;2023-11-19T04:35:59;8.32;;;4.10;;
57225;SDS011;43082;43.568;22.256;2023-11-19T04:38:26;6.75;;;3.70;;
57225;SDS011;43082;43.568;22.256;2023-11-19T04:40:52;8.40;;;4.20;;
57225;SDS011;43082;43.568;22.256;2023-11-19T04:43:17;9.65;;;4.80;;
57225;SDS011;43082;43.568;22.256;2023-11-19T04:45:42;7.60;;;4.57;;
57225;SDS011;43082;43.568;22.256;2023-11-19T04:48:07;8.15;;;4.93;;
57225;SDS011;43082;43.568;22.256;2023-11-19T04:50:34;7.93;;;4.95;;
57225;SDS011;43082;43.568;22.256;2023-11-19T04:52:59;7.50;;;4.55;;
57225;SDS011;43082;43.568;22.256;2023-11-19T04:55:24;8.52;;;5.10;;
57225;SDS011;43082;43.568;22.256;2023-11-19T04:57:50;8.32;;;4.88;;
57225;SDS011;43082;43.568;22.256;2023-11-19T05:00:15;8.77;;;5.38;;
57225;SDS011;43082;43.568;22.256;2023-11-19T05:02:40;8.95;;;4.95;;
57225;SDS011;43082;43.568;22.256;2023-11-19T05:05:06;8.38;;;5.07;;
57225;SDS011;43082;43.568;22.256;2023-11-19T05:07:31;7.60;;;4.30;;
57225;SDS011;43082;43.568;22.256;2023-11-19T05:09:56;8.77;;;5.38;;
57225;SDS011;43082;43.568;22.256;2023-11-19T05:12:22;8.95;;;5.22;;
57225;SDS011;43082;43.568;22.256;2023-11-19T05:14:48;8.15;;;5.05;;
57225;SDS011;43082;43.568;22.256;2023-11-19T05:17:15;9.65;;;5.50;;
57225;SDS011;43082;43.568;22.256;2023-11-19T05:19:43;8.05;;;4.45;;
57225;SDS011;43082;43.568;22.256;2023-11-19T05:22:08;8.38;;;5.05;;
57225;SDS011;43082;43.568;22.256;2023-11-19T05:24:33;10.05;;;5.60;;
57225;SDS011;43082;43.568;22.256;2023-11-19T05:26:59;8.93;;;4.82;;
57225;SDS011;43082;43.568;22.256;2023-11-19T05:29:24;7.68;;;5.00;;
57225;SDS011;43082;43.568;22.256;2023-11-19T05:31:49;8.00;;;4.60;;
57225;SDS011;43082;43.568;22.256;2023-11-19T05:34:15;7.32;;;4.40;;
57225;SDS011;43082;43.568;22.256;2023-11-19T05:36:40;8.02;;;4.85;;
57225;SDS011;43082;43.568;22.256;2023-11-19T05:39:05;9.73;;;5.75;;
57225;SDS011;43082;43.568;22.256;2023-11-19T05:41:31;8.80;;;5.47;;
57225;SDS011;43082;43.568;22.256;2023-11-19T05:43:56;9.98;;;5.25;;
57225;SDS011;43082;43.568;22.256;2023-11-19T05:46:21;8.35;;;5.28;;
57225;SDS011;43082;43.568;22.256;2023-11-19T05:48:47;10.02;;;5.53;;
57225;SDS011;43082;43.568;22.256;2023-11-19T05:51:13;14.70;;;8.70;;
57225;SDS011;43082;43.568;22.256;2023-11-19T05:53:40;9.02;;;5.95;;
57225;SDS011;43082;43.568;22.256;2023-11-19T05:56:05;10.07;;;6.53;;
57225;SDS011;43082;43.568;22.256;2023-11-19T05:58:34;12.15;;;7.72;;
57225;SDS011;43082;43.568;22.256;2023-11-19T06:01:00;11.65;;;6.82;;
57225;SDS011;43082;43.568;22.256;2023-11-19T06:03:28;9.23;;;5.32;;
57225;SDS011;43082;43.568;22.256;2023-11-19T06:05:54;10.88;;;7.18;;
57225;SDS011;43082;43.568;22.256;2023-11-19T06:08:19;8.40;;;5.05;;
57225;SDS011;43082;43.568;22.256;2023-11-19T06:10:45;8.60;;;5.63;;
57225;SDS011;43082;43.568;22.256;2023-11-19T06:13:11;9.45;;;5.43;;
57225;SDS011;43082;43.568;22.256;2023-11-19T06:15:37;10.63;;;6.20;;
57225;SDS011;43082;43.568;22.256;2023-11-19T06:18:02;10.00;;;5.93;;
57225;SDS011;43082;43.568;22.256;2023-11-19T06:20:29;8.20;;;5.20;;
57225;SDS011;43082;43.568;22.256;2023-11-19T06:22:54;8.30;;;5.30;;
57225;SDS011;43082;43.568;22.256;2023-11-19T06:25:20;11.70;;;7.45;;
57225;SDS011;43082;43.568;22.256;2023-11-19T06:27:45;22.23;;;11.73;;
57225;SDS011;43082;43.568;22.256;2023-11-19T06:30:10;36.05;;;18.33;;
57225;SDS011;43082;43.568;22.256;2023-11-19T06:32:36;38.60;;;20.70;;
57225;SDS011;43082;43.568;22.256;2023-11-19T06:35:02;38.45;;;22.70;;
57225;SDS011;43082;43.568;22.256;2023-11-19T06:37:29;40.30;;;25.20;;
57225;SDS011;43082;43.568;22.256;2023-11-19T06:39:54;26.92;;;16.13;;
57225;SDS011;43082;43.568;22.256;2023-11-19T06:42:20;20.98;;;13.70;;
57225;SDS011;43082;43.568;22.256;2023-11-19T06:44:45;22.73;;;14.82;;
57225;SDS011;43082;43.568;22.256;2023-11-19T06:47:10;28.98;;;17.35;;
57225;SDS011;43082;43.568;22.256;2023-11-19T06:49:36;12.90;;;8.88;;
57225;SDS011;43082;43.568;22.256;2023-11-19T06:52:01;10.90;;;7.60;;
57225;SDS011;43082;43.568;22.256;2023-11-19T06:54:26;16.95;;;13.75;;
57225;SDS011;43082;43.568;22.256;2023-11-19T06:56:51;16.55;;;12.38;;
57225;SDS011;43082;43.568;22.256;2023-11-19T06:59:17;17.90;;;13.38;;
57225;SDS011;43082;43.568;22.256;2023-11-19T07:01:42;18.00;;;12.68;;
57225;SDS011;43082;43.568;22.256;2023-11-19T07:04:11;15.77;;;11.35;;
57225;SDS011;43082;43.568;22.256;2023-11-19T07:06:37;33.40;;;22.13;;
57225;SDS011;43082;43.568;22.256;2023-11-19T07:09:03;23.85;;;16.25;;
57225;SDS011;43082;43.568;22.256;2023-11-19T07:11:39;31.55;;;24.63;;
57225;SDS011;43082;43.568;22.256;2023-11-19T07:14:04;22.77;;;15.43;;
57225;SDS011;43082;43.568;22.256;2023-11-19T07:16:31;14.65;;;9.88;;
57225;SDS011;43082;43.568;22.256;2023-11-19T07:18:56;16.05;;;10.68;;
57225;SDS011;43082;43.568;22.256;2023-11-19T07:21:23;13.27;;;8.68;;
57225;SDS011;43082;43.568;22.256;2023-11-19T07:23:49;11.85;;;7.55;;
57225;SDS011;43082;43.568;22.256;2023-11-19T07:26:15;13.57;;;9.05;;
57225;SDS011;43082;43.568;22.256;2023-11-19T07:28:40;13.50;;;9.35;;
57225;SDS011;43082;43.568;22.256;2023-11-19T07:31:05;11.70;;;8.00;;
57225;SDS011;43082;43.568;22.256;2023-11-19T07:33:33;12.18;;;8.20;;
57225;SDS011;43082;43.568;22.256;2023-11-19T07:35:58;12.23;;;8.25;;
57225;SDS011;43082;43.568;22.256;2023-11-19T07:38:23;17.10;;;11.23;;
57225;SDS011;43082;43.568;22.256;2023-11-19T07:40:49;11.98;;;7.93;;
57225;SDS011;43082;43.568;22.256;2023-11-19T07:43:14;11.40;;;7.90;;
57225;SDS011;43082;43.568;22.256;2023-11-19T07:45:40;8.90;;;5.60;;
57225;SDS011;43082;43.568;22.256;2023-11-19T07:48:10;11.57;;;5.95;;
57225;SDS011;43082;43.568;22.256;2023-11-19T07:50:36;11.57;;;6.50;;
57225;SDS011;43082;43.568;22.256;2023-11-19T07:53:01;9.75;;;5.95;;
57225;SDS011;43082;43.568;22.256;2023-11-19T07:55:29;9.38;;;5.20;;
57225;SDS011;43082;43.568;22.256;2023-11-19T07:57:54;10.80;;;6.00;;
57225;SDS011;43082;43.568;22.256;2023-11-19T08:00:20;9.48;;;4.63;;
57225;SDS011;43082;43.568;22.256;2023-11-19T08:02:46;8.55;;;5.00;;
57225;SDS011;43082;43.568;22.256;2023-11-19T08:05:11;11.05;;;7.20;;
57225;SDS011;43082;43.568;22.256;2023-11-19T08:07:36;9.65;;;5.68;;
57225;SDS011;43082;43.568;22.256;2023-11-19T08:10:02;11.15;;;6.30;;
57225;SDS011;43082;43.568;22.256;2023-11-19T08:12:27;10.52;;;6.07;;
57225;SDS011;43082;43.568;22.256;2023-11-19T08:14:52;10.20;;;5.50;;
57225;SDS011;43082;43.568;22.256;2023-11-19T08:17:18;9.93;;;5.70;;
57225;SDS011;43082;43.568;22.256;2023-11-19T08:19:43;11.00;;;5.97;;
57225;SDS011;43082;43.568;22.256;2023-11-19T08:22:08;12.43;;;7.57;;
57225;SDS011;43082;43.568;22.256;2023-11-19T08:24:34;10.93;;;5.07;;
57225;SDS011;43082;43.568;22.256;2023-11-19T08:27:00;12.57;;;6.78;;
57225;SDS011;43082;43.568;22.256;2023-11-19T08:29:25;15.43;;;8.88;;
57225;SDS011;43082;43.568;22.256;2023-11-19T08:31:50;11.20;;;6.03;;
57225;SDS011;43082;43.568;22.256;2023-11-19T08:34:16;18.75;;;8.68;;
57225;SDS011;43082;43.568;22.256;2023-11-19T08:36:41;19.67;;;9.43;;
57225;SDS011;43082;43.568;22.256;2023-11-19T08:39:06;22.08;;;10.77;;
57225;SDS011;43082;43.568;22.256;2023-11-19T08:41:33;20.90;;;11.30;;
57225;SDS011;43082;43.568;22.256;2023-11-19T08:43:58;31.55;;;16.67;;
57225;SDS011;43082;43.568;22.256;2023-11-19T08:46:24;11.05;;;7.05;;
57225;SDS011;43082;43.568;22.256;2023-11-19T08:48:50;9.52;;;6.22;;
57225;SDS011;43082;43.568;22.256;2023-11-19T08:51:15;10.93;;;7.50;;
57225;SDS011;43082;43.568;22.256;2023-11-19T08:53:41;20.05;;;14.93;;
57225;SDS011;43082;43.568;22.256;2023-11-19T08:56:06;18.23;;;12.60;;
57225;SDS011;43082;43.568;22.256;2023-11-19T08:58:31;14.77;;;8.77;;
57225;SDS011;43082;43.568;22.256;2023-11-19T09:00:57;11.27;;;7.53;;
57225;SDS011;43082;43.568;22.256;2023-11-19T09:03:23;9.20;;;5.97;;
57225;SDS011;43082;43.568;22.256;2023-11-19T09:05:49;14.02;;;9.80;;
57225;SDS011;43082;43.568;22.256;2023-11-19T09:08:14;14.77;;;10.15;;
57225;SDS011;43082;43.568;22.256;2023-11-19T09:10:39;10.35;;;7.10;;
57225;SDS011;43082;43.568;22.256;2023-11-19T09:13:04;13.68;;;9.35;;
57225;SDS011;43082;43.568;22.256;2023-11-19T09:15:30;11.65;;;8.05;;
57225;SDS011;43082;43.568;22.256;2023-11-19T09:17:55;11.95;;;7.55;;
57225;SDS011;43082;43.568;22.256;2023-11-19T09:20:21;11.63;;;6.65;;
57225;SDS011;43082;43.568;22.256;2023-11-19T09:22:46;10.48;;;6.35;;
57225;SDS011;43082;43.568;22.256;2023-11-19T09:25:11;15.32;;;8.10;;
57225;SDS011;43082;43.568;22.256;2023-11-19T09:27:41;10.73;;;5.65;;
57225;SDS011;43082;43.568;22.256;2023-11-19T09:30:07;11.57;;;5.65;;
57225;SDS011;43082;43.568;22.256;2023-11-19T09:32:32;11.43;;;7.28;;
57225;SDS011;43082;43.568;22.256;2023-11-19T09:34:57;10.15;;;6.40;;
57225;SDS011;43082;43.568;22.256;2023-11-19T09:37:23;10.25;;;6.35;;
57225;SDS011;43082;43.568;22.256;2023-11-19T09:39:48;9.95;;;6.28;;
57225;SDS011;43082;43.568;22.256;2023-11-19T09:42:13;7.18;;;4.30;;
57225;SDS011;43082;43.568;22.256;2023-11-19T09:44:39;16.88;;;11.60;;
57225;SDS011;43082;43.568;22.256;2023-11-19T09:47:05;12.25;;;8.40;;
57225;SDS011;43082;43.568;22.256;2023-11-19T09:49:32;9.73;;;6.20;;
57225;SDS011;43082;43.568;22.256;2023-11-19T09:51:58;7.40;;;3.80;;
57225;SDS011;43082;43.568;22.256;2023-11-19T09:54:23;9.98;;;7.63;;
57225;SDS011;43082;43.568;22.256;2023-11-19T09:56:49;14.02;;;8.75;;
57225;SDS011;43082;43.568;22.256;2023-11-19T09:59:14;14.30;;;7.80;;
57225;SDS011;43082;43.568;22.256;2023-11-19T10:01:40;10.60;;;7.00;;
57225;SDS011;43082;43.568;22.256;2023-11-19T10:04:05;11.02;;;7.00;;
57225;SDS011;43082;43.568;22.256;2023-11-19T10:06:31;10.80;;;6.57;;
57225;SDS011;43082;43.568;22.256;2023-11-19T10:08:56;15.48;;;10.80;;
57225;SDS011;43082;43.568;22.256;2023-11-19T10:11:22;18.10;;;12.38;;
57225;SDS011;43082;43.568;22.256;2023-11-19T10:13:47;14.55;;;9.93;;
57225;SDS011;43082;43.568;22.256;2023-11-19T10:16:13;10.40;;;6.57;;
57225;SDS011;43082;43.568;22.256;2023-11-19T10:18:48;12.05;;;7.93;;
57225;SDS011;43082;43.568;22.256;2023-11-19T10:21:15;10.02;;;6.30;;
57225;SDS011;43082;43.568;22.256;2023-11-19T10:23:52;8.98;;;4.90;;
57225;SDS011;43082;43.568;22.256;2023-11-19T10:26:17;7.20;;;4.13;;
57225;SDS011;43082;43.568;22.256;2023-11-19T10:28:43;13.55;;;8.48;;
57225;SDS011;43082;43.568;22.256;2023-11-19T10:31:11;12.23;;;7.18;;
57225;SDS011;43082;43.568;22.256;2023-11-19T10:33:36;11.20;;;6.32;;
57225;SDS011;43082;43.568;22.256;2023-11-19T10:36:02;13.43;;;8.02;;
57225;SDS011;43082;43.568;22.256;2023-11-19T10:38:27;6.43;;;3.17;;
57225;SDS011;43082;43.568;22.256;2023-11-19T10:40:53;8.20;;;4.30;;
57225;SDS011;43082;43.568;22.256;2023-11-19T10:43:19;11.48;;;6.55;;
57225;SDS011;43082;43.568;22.256;2023-11-19T10:45:47;8.23;;;4.95;;
57225;SDS011;43082;43.568;22.256;2023-11-19T10:48:12;9.27;;;5.40;;
57225;SDS011;43082;43.568;22.256;2023-11-19T10:50:38;12.55;;;8.57;;
57225;SDS011;43082;43.568;22.256;2023-11-19T10:53:04;10.98;;;6.90;;
57225;SDS011;43082;43.568;22.256;2023-11-19T10:55:31;9.88;;;6.45;;
57225;SDS011;43082;43.568;22.256;2023-11-19T10:58:03;13.90;;;8.57;;
57225;SDS011;43082;43.568;22.256;2023-11-19T11:00:30;15.02;;;9.38;;
57225;SDS011;43082;43.568;22.256;2023-11-19T11:03:00;9.73;;;6.30;;
57225;SDS011;43082;43.568;22.256;2023-11-19T11:05:26;7.45;;;4.60;;
57225;SDS011;43082;43.568;22.256;2023-11-19T11:07:51;9.32;;;3.83;;
57225;SDS011;43082;43.568;22.256;2023-11-19T11:10:17;9.23;;;5.55;;
57225;SDS011;43082;43.568;22.256;2023-11-19T11:12:43;7.32;;;4.40;;
57225;SDS011;43082;43.568;22.256;2023-11-19T11:15:08;9.75;;;5.38;;
57225;SDS011;43082;43.568;22.256;2023-11-19T11:17:36;7.35;;;4.43;;
57225;SDS011;43082;43.568;22.256;2023-11-19T11:20:04;11.63;;;6.45;;
57225;SDS011;43082;43.568;22.256;2023-11-19T11:22:30;29.80;;;8.55;;
57225;SDS011;43082;43.568;22.256;2023-11-19T11:25:34;15.55;;;9.02;;
57225;SDS011;43082;43.568;22.256;2023-11-19T11:38:04;9.18;;;5.68;;
57225;SDS011;43082;43.568;22.256;2023-11-19T11:40:31;8.50;;;5.30;;
57225;SDS011;43082;43.568;22.256;2023-11-19T11:42:57;15.05;;;8.48;;
57225;SDS011;43082;43.568;22.256;2023-11-19T11:45:38;15.43;;;8.82;;
57225;SDS011;43082;43.568;22.256;2023-11-19T11:50:29;8.23;;;4.80;;
57225;SDS011;43082;43.568;22.256;2023-11-19T11:55:36;11.13;;;6.78;;
57225;SDS011;43082;43.568;22.256;2023-11-19T11:58:02;11.70;;;8.38;;
57225;SDS011;43082;43.568;22.256;2023-11-19T12:02:55;9.98;;;6.25;;
57225;SDS011;43082;43.568;22.256;2023-11-19T12:05:20;10.73;;;7.18;;
57225;SDS011;43082;43.568;22.256;2023-11-19T12:07:54;8.50;;;5.07;;
57225;SDS011;43082;43.568;22.256;2023-11-19T12:10:20;11.70;;;7.28;;
57225;SDS011;43082;43.568;22.256;2023-11-19T12:12:47;14.60;;;10.50;;
57225;SDS011;43082;43.568;22.256;2023-11-19T12:15:12;7.85;;;5.28;;
57225;SDS011;43082;43.568;22.256;2023-11-19T12:17:43;12.50;;;6.75;;
57225;SDS011;43082;43.568;22.256;2023-11-19T12:22:40;11.77;;;6.67;;
57225;SDS011;43082;43.568;22.256;2023-11-19T12:25:06;9.00;;;5.63;;
57225;SDS011;43082;43.568;22.256;2023-11-19T12:27:32;17.42;;;9.50;;
57225;SDS011;43082;43.568;22.256;2023-11-19T12:29:59;16.65;;;10.35;;
57225;SDS011;43082;43.568;22.256;2023-11-19T12:32:24;17.85;;;9.68;;
57225;SDS011;43082;43.568;22.256;2023-11-19T12:34:49;22.35;;;10.45;;
57225;SDS011;43082;43.568;22.256;2023-11-19T12:37:15;12.27;;;7.00;;
57225;SDS011;43082;43.568;22.256;2023-11-19T12:39:40;14.93;;;9.93;;
57225;SDS011;43082;43.568;22.256;2023-11-19T12:42:05;14.02;;;8.48;;
57225;SDS011;43082;43.568;22.256;2023-11-19T12:44:31;22.10;;;14.15;;
57225;SDS011;43082;43.568;22.256;2023-11-19T12:49:25;14.05;;;7.68;;
57225;SDS011;43082;43.568;22.256;2023-11-19T12:51:50;13.88;;;9.77;;
57225;SDS011;43082;43.568;22.256;2023-11-19T12:54:16;14.63;;;9.68;;
57225;SDS011;43082;43.568;22.256;2023-11-19T12:56:51;11.05;;;7.18;;
57225;SDS011;43082;43.568;22.256;2023-11-19T12:59:16;21.85;;;16.55;;
57225;SDS011;43082;43.568;22.256;2023-11-19T13:01:42;12.63;;;8.07;;
57225;SDS011;43082;43.568;22.256;2023-11-19T13:04:18;15.25;;;10.10;;
57225;SDS011;43082;43.568;22.256;2023-11-19T13:06:47;15.90;;;10.63;;
57225;SDS011;43082;43.568;22.256;2023-11-19T13:09:22;10.38;;;6.63;;
57225;SDS011;43082;43.568;22.256;2023-11-19T13:11:49;15.60;;;11.00;;
57225;SDS011;43082;43.568;22.256;2023-11-19T13:14:14;10.77;;;7.53;;
57225;SDS011;43082;43.568;22.256;2023-11-19T13:16:39;12.77;;;7.63;;
57225;SDS011;43082;43.568;22.256;2023-11-19T13:19:05;14.68;;;9.63;;
57225;SDS011;43082;43.568;22.256;2023-11-19T13:21:30;12.63;;;7.90;;
57225;SDS011;43082;43.568;22.256;2023-11-19T13:23:56;15.50;;;9.77;;
57225;SDS011;43082;43.568;22.256;2023-11-19T13:26:21;11.52;;;6.35;;
57225;SDS011;43082;43.568;22.256;2023-11-19T13:28:46;9.13;;;5.40;;
57225;SDS011;43082;43.568;22.256;2023-11-19T13:31:12;9.20;;;5.57;;
57225;SDS011;43082;43.568;22.256;2023-11-19T13:33:37;10.57;;;6.68;;
57225;SDS011;43082;43.568;22.256;2023-11-19T13:36:03;8.93;;;5.70;;
57225;SDS011;43082;43.568;22.256;2023-11-19T13:38:34;10.23;;;5.93;;
57225;SDS011;43082;43.568;22.256;2023-11-19T13:41:03;12.25;;;7.85;;
57225;SDS011;43082;43.568;22.256;2023-11-19T13:43:29;13.02;;;7.63;;
57225;SDS011;43082;43.568;22.256;2023-11-19T13:45:55;15.02;;;9.27;;
57225;SDS011;43082;43.568;22.256;2023-11-19T13:48:20;16.88;;;10.88;;
57225;SDS011;43082;43.568;22.256;2023-11-19T13:50:46;11.35;;;7.60;;
57225;SDS011;43082;43.568;22.256;2023-11-19T13:53:11;13.60;;;8.88;;
57225;SDS011;43082;43.568;22.256;2023-11-19T13:55:37;14.40;;;9.15;;
57225;SDS011;43082;43.568;22.256;2023-11-19T13:58:02;15.35;;;8.95;;
57225;SDS011;43082;43.568;22.256;2023-11-19T14:00:27;16.83;;;10.90;;
57225;SDS011;43082;43.568;22.256;2023-11-19T14:02:53;30.08;;;21.35;;
57225;SDS011;43082;43.568;22.256;2023-11-19T14:05:18;30.83;;;20.80;;
57225;SDS011;43082;43.568;22.256;2023-11-19T14:07:44;27.55;;;18.58;;
57225;SDS011;43082;43.568;22.256;2023-11-19T14:10:11;26.73;;;17.13;;
57225;SDS011;43082;43.568;22.256;2023-11-19T14:12:37;19.52;;;13.35;;
57225;SDS011;43082;43.568;22.256;2023-11-19T14:15:03;47.10;;;30.25;;
57225;SDS011;43082;43.568;22.256;2023-11-19T14:17:30;34.58;;;24.55;;
57225;SDS011;43082;43.568;22.256;2023-11-19T14:19:56;32.40;;;22.98;;
57225;SDS011;43082;43.568;22.256;2023-11-19T14:22:21;25.60;;;18.70;;
57225;SDS011;43082;43.568;22.256;2023-11-19T14:24:46;27.27;;;20.52;;
57225;SDS011;43082;43.568;22.256;2023-11-19T14:27:13;20.83;;;14.20;;
57225;SDS011;43082;43.568;22.256;2023-11-19T14:29:38;33.00;;;23.55;;
57225;SDS011;43082;43.568;22.256;2023-11-19T14:32:04;26.45;;;20.45;;
57225;SDS011;43082;43.568;22.256;2023-11-19T14:34:30;22.30;;;15.98;;
57225;SDS011;43082;43.568;22.256;2023-11-19T14:36:56;26.15;;;19.20;;
57225;SDS011;43082;43.568;22.256;2023-11-19T14:39:21;22.55;;;14.75;;
57225;SDS011;43082;43.568;22.256;2023-11-19T14:41:46;21.58;;;15.20;;